sensor_id;sensor_type;location;lat;lon;timestamp;pressure;altitude;pressure_sealevel;temperature
73734;BMP280;62039;50.000;9.064;2022-11-11T00:01:36;101846.44;;;6.70
73734;BMP280;62039;50.000;9.064;2022-11-11T00:04:03;101850.06;;;6.68
73734;BMP280;62039;50.000;9.064;2022-11-11T00:06:29;101847.66;;;6.64
73734;BMP280;62039;50.000;9.064;2022-11-11T00:08:56;101840.81;;;6.63
73734;BMP280;62039;50.000;9.064;2022-11-11T00:11:25;101846.81;;;6.64
73734;BMP280;62039;50.000;9.064;2022-11-11T00:13:53;101852.03;;;6.64
73734;BMP280;62039;50.000;9.064;2022-11-11T00:16:20;101846.81;;;6.64
73734;BMP280;62039;50.000;9.064;2022-11-11T00:18:47;101846.00;;;6.63
73734;BMP280;62039;50.000;9.064;2022-11-11T00:21:13;101849.50;;;6.62
73734;BMP280;62039;50.000;9.064;2022-11-11T00:23:40;101865.09;;;6.62
73734;BMP280;62039;50.000;9.064;2022-11-11T00:26:07;101858.22;;;6.61
73734;BMP280;62039;50.000;9.064;2022-11-11T00:28:55;101860.13;;;6.59
73734;BMP280;62039;50.000;9.064;2022-11-11T00:31:22;101859.28;;;6.59
73734;BMP280;62039;50.000;9.064;2022-11-11T00:33:51;101862.72;;;6.59
73734;BMP280;62039;50.000;9.064;2022-11-11T00:36:18;101862.81;;;6.58
73734;BMP280;62039;50.000;9.064;2022-11-11T00:38:44;101863.72;;;6.57
73734;BMP280;62039;50.000;9.064;2022-11-11T00:41:12;101855.94;;;6.57
73734;BMP280;62039;50.000;9.064;2022-11-11T00:43:39;101861.22;;;6.55
73734;BMP280;62039;50.000;9.064;2022-11-11T00:46:07;101864.78;;;6.54
73734;BMP280;62039;50.000;9.064;2022-11-11T00:48:33;101870.91;;;6.53
73734;BMP280;62039;50.000;9.064;2022-11-11T00:51:00;101873.59;;;6.52
73734;BMP280;62039;50.000;9.064;2022-11-11T00:53:28;101871.06;;;6.50
73734;BMP280;62039;50.000;9.064;2022-11-11T00:55:55;101869.41;;;6.49
73734;BMP280;62039;50.000;9.064;2022-11-11T00:58:22;101874.81;;;6.46
73734;BMP280;62039;50.000;9.064;2022-11-11T01:00:50;101879.25;;;6.44
73734;BMP280;62039;50.000;9.064;2022-11-11T01:03:18;101884.53;;;6.43
73734;BMP280;62039;50.000;9.064;2022-11-11T01:05:45;101889.81;;;6.41
73734;BMP280;62039;50.000;9.064;2022-11-11T01:08:11;101890.75;;;6.40
73734;BMP280;62039;50.000;9.064;2022-11-11T01:10:38;101877.03;;;6.38
73734;BMP280;62039;50.000;9.064;2022-11-11T01:13:06;101881.44;;;6.36
73734;BMP280;62039;50.000;9.064;2022-11-11T01:15:33;101889.31;;;6.35
73734;BMP280;62039;50.000;9.064;2022-11-11T01:17:59;101886.84;;;6.33
73734;BMP280;62039;50.000;9.064;2022-11-11T01:20:27;101881.75;;;6.32
73734;BMP280;62039;50.000;9.064;2022-11-11T01:22:54;101874.88;;;6.31
73734;BMP280;62039;50.000;9.064;2022-11-11T01:25:21;101875.88;;;6.28
73734;BMP280;62039;50.000;9.064;2022-11-11T01:27:47;101877.78;;;6.26
73734;BMP280;62039;50.000;9.064;2022-11-11T01:30:14;101868.41;;;6.23
73734;BMP280;62039;50.000;9.064;2022-11-11T01:32:41;101870.38;;;6.20
73734;BMP280;62039;50.000;9.064;2022-11-11T01:35:08;101867.19;;;6.15
73734;BMP280;62039;50.000;9.064;2022-11-11T01:37:36;101871.75;;;6.11
73734;BMP280;62039;50.000;9.064;2022-11-11T01:40:03;101879.91;;;6.05
73734;BMP280;62039;50.000;9.064;2022-11-11T01:42:30;101879.25;;;6.02
73734;BMP280;62039;50.000;9.064;2022-11-11T01:44:56;101886.31;;;6.00
73734;BMP280;62039;50.000;9.064;2022-11-11T01:47:23;101882.97;;;5.98
73734;BMP280;62039;50.000;9.064;2022-11-11T01:49:54;101879.53;;;5.97
73734;BMP280;62039;50.000;9.064;2022-11-11T01:52:24;101878.91;;;5.94
73734;BMP280;62039;50.000;9.064;2022-11-11T01:54:54;101866.09;;;5.91
73734;BMP280;62039;50.000;9.064;2022-11-11T01:57:24;101871.47;;;5.87
73734;BMP280;62039;50.000;9.064;2022-11-11T01:59:57;101856.94;;;5.85
73734;BMP280;62039;50.000;9.064;2022-11-11T02:02:30;101860.53;;;5.82
73734;BMP280;62039;50.000;9.064;2022-11-11T02:05:02;101869.34;;;5.80
73734;BMP280;62039;50.000;9.064;2022-11-11T02:07:29;101876.38;;;5.78
73734;BMP280;62039;50.000;9.064;2022-11-11T02:09:57;101869.59;;;5.75
73734;BMP280;62039;50.000;9.064;2022-11-11T02:12:24;101878.44;;;5.73
73734;BMP280;62039;50.000;9.064;2022-11-11T02:14:53;101888.81;;;5.73
73734;BMP280;62039;50.000;9.064;2022-11-11T02:17:20;101883.69;;;5.71
73734;BMP280;62039;50.000;9.064;2022-11-11T02:19:49;101889.63;;;5.73
73734;BMP280;62039;50.000;9.064;2022-11-11T02:22:21;101879.34;;;5.72
73734;BMP280;62039;50.000;9.064;2022-11-11T02:24:51;101877.75;;;5.69
73734;BMP280;62039;50.000;9.064;2022-11-11T02:27:19;101869.22;;;5.67
73734;BMP280;62039;50.000;9.064;2022-11-11T02:29:49;101864.25;;;5.64
73734;BMP280;62039;50.000;9.064;2022-11-11T02:32:16;101864.41;;;5.61
73734;BMP280;62039;50.000;9.064;2022-11-11T02:34:43;101868.88;;;5.59
73734;BMP280;62039;50.000;9.064;2022-11-11T02:37:09;101866.63;;;5.53
73734;BMP280;62039;50.000;9.064;2022-11-11T02:39:41;101877.34;;;5.47
73734;BMP280;62039;50.000;9.064;2022-11-11T02:42:30;101872.44;;;5.42
73734;BMP280;62039;50.000;9.064;2022-11-11T02:44:57;101874.38;;;5.39
73734;BMP280;62039;50.000;9.064;2022-11-11T02:47:24;101872.72;;;5.38
73734;BMP280;62039;50.000;9.064;2022-11-11T02:49:51;101871.03;;;5.37
73734;BMP280;62039;50.000;9.064;2022-11-11T02:52:18;101880.50;;;5.38
73734;BMP280;62039;50.000;9.064;2022-11-11T02:54:44;101887.44;;;5.37
73734;BMP280;62039;50.000;9.064;2022-11-11T02:57:11;101888.25;;;5.38
73734;BMP280;62039;50.000;9.064;2022-11-11T02:59:39;101888.19;;;5.39
73734;BMP280;62039;50.000;9.064;2022-11-11T03:02:07;101885.66;;;5.38
73734;BMP280;62039;50.000;9.064;2022-11-11T03:04:34;101903.81;;;5.38
73734;BMP280;62039;50.000;9.064;2022-11-11T03:07:01;101905.50;;;5.39
73734;BMP280;62039;50.000;9.064;2022-11-11T03:09:27;101903.81;;;5.38
73734;BMP280;62039;50.000;9.064;2022-11-11T03:11:54;101906.31;;;5.39
73734;BMP280;62039;50.000;9.064;2022-11-11T03:14:21;101907.16;;;5.40
73734;BMP280;62039;50.000;9.064;2022-11-11T03:16:49;101907.06;;;5.41
73734;BMP280;62039;50.000;9.064;2022-11-11T03:19:16;101896.78;;;5.40
73734;BMP280;62039;50.000;9.064;2022-11-11T03:21:43;101905.38;;;5.40
73734;BMP280;62039;50.000;9.064;2022-11-11T03:24:29;101901.16;;;5.39
73734;BMP280;62039;50.000;9.064;2022-11-11T03:26:56;101899.56;;;5.37
73734;BMP280;62039;50.000;9.064;2022-11-11T03:29:22;101902.97;;;5.37
73734;BMP280;62039;50.000;9.064;2022-11-11T03:31:50;101900.38;;;5.37
73734;BMP280;62039;50.000;9.064;2022-11-11T03:34:17;101914.19;;;5.38
73734;BMP280;62039;50.000;9.064;2022-11-11T03:36:44;101916.78;;;5.38
73734;BMP280;62039;50.000;9.064;2022-11-11T03:39:11;101921.97;;;5.38
73734;BMP280;62039;50.000;9.064;2022-11-11T03:41:37;101924.56;;;5.38
73734;BMP280;62039;50.000;9.064;2022-11-11T03:44:04;101925.38;;;5.38
73734;BMP280;62039;50.000;9.064;2022-11-11T03:46:30;101933.09;;;5.40
73734;BMP280;62039;50.000;9.064;2022-11-11T03:48:58;101939.91;;;5.41
73734;BMP280;62039;50.000;9.064;2022-11-11T03:51:25;101948.63;;;5.40
73734;BMP280;62039;50.000;9.064;2022-11-11T03:53:51;101943.47;;;5.40
73734;BMP280;62039;50.000;9.064;2022-11-11T03:56:18;101939.91;;;5.41
73734;BMP280;62039;50.000;9.064;2022-11-11T03:58:44;101933.09;;;5.40
73734;BMP280;62039;50.000;9.064;2022-11-11T04:01:11;101938.28;;;5.40
73734;BMP280;62039;50.000;9.064;2022-11-11T04:03:37;101938.28;;;5.40
73734;BMP280;62039;50.000;9.064;2022-11-11T04:06:08;101939.06;;;5.40
73734;BMP280;62039;50.000;9.064;2022-11-11T04:08:35;101944.38;;;5.39
73734;BMP280;62039;50.000;9.064;2022-11-11T04:11:04;101944.38;;;5.39
73734;BMP280;62039;50.000;9.064;2022-11-11T04:13:32;101947.03;;;5.37
73734;BMP280;62039;50.000;9.064;2022-11-11T04:15:59;101948.88;;;5.35
73734;BMP280;62039;50.000;9.064;2022-11-11T04:18:25;101954.06;;;5.35
73734;BMP280;62039;50.000;9.064;2022-11-11T04:20:52;101954.97;;;5.34
73734;BMP280;62039;50.000;9.064;2022-11-11T04:23:20;101956.72;;;5.34
73734;BMP280;62039;50.000;9.064;2022-11-11T04:25:46;101959.31;;;5.34
73734;BMP280;62039;50.000;9.064;2022-11-11T04:28:13;101971.47;;;5.33
73734;BMP280;62039;50.000;9.064;2022-11-11T04:30:39;101969.69;;;5.34
73734;BMP280;62039;50.000;9.064;2022-11-11T04:33:06;101974.16;;;5.32
73734;BMP280;62039;50.000;9.064;2022-11-11T04:35:32;101969.81;;;5.32
73734;BMP280;62039;50.000;9.064;2022-11-11T04:37:59;101966.38;;;5.32
73734;BMP280;62039;50.000;9.064;2022-11-11T04:40:27;101958.59;;;5.32
73734;BMP280;62039;50.000;9.064;2022-11-11T04:42:53;101958.69;;;5.30
73734;BMP280;62039;50.000;9.064;2022-11-11T04:45:20;101945.03;;;5.27
73734;BMP280;62039;50.000;9.064;2022-11-11T04:47:54;101946.91;;;5.25
73734;BMP280;62039;50.000;9.064;2022-11-11T04:50:21;101947.16;;;5.20
73734;BMP280;62039;50.000;9.064;2022-11-11T04:52:47;101947.25;;;5.19
73734;BMP280;62039;50.000;9.064;2022-11-11T04:55:14;101936.13;;;5.17
73734;BMP280;62039;50.000;9.064;2022-11-11T04:57:48;101931.19;;;5.12
73734;BMP280;62039;50.000;9.064;2022-11-11T05:00:17;101927.91;;;5.08
73734;BMP280;62039;50.000;9.064;2022-11-11T05:02:44;101929.00;;;5.04
73734;BMP280;62039;50.000;9.064;2022-11-11T05:05:11;101921.41;;;5.01
73734;BMP280;62039;50.000;9.064;2022-11-11T05:07:37;101931.13;;;4.98
73734;BMP280;62039;50.000;9.064;2022-11-11T05:10:04;101933.03;;;4.94
73734;BMP280;62039;50.000;9.064;2022-11-11T05:12:31;101935.03;;;4.89
73734;BMP280;62039;50.000;9.064;2022-11-11T05:14:59;101939.63;;;4.84
73734;BMP280;62039;50.000;9.064;2022-11-11T05:17:25;101935.53;;;4.80
73734;BMP280;62039;50.000;9.064;2022-11-11T05:19:52;101937.47;;;4.77
73734;BMP280;62039;50.000;9.064;2022-11-11T05:22:22;101938.38;;;4.76
73734;BMP280;62039;50.000;9.064;2022-11-11T05:24:50;101933.28;;;4.74
73734;BMP280;62039;50.000;9.064;2022-11-11T05:27:17;101936.78;;;4.73
73734;BMP280;62039;50.000;9.064;2022-11-11T05:29:43;101946.34;;;4.73
73734;BMP280;62039;50.000;9.064;2022-11-11T05:32:15;101943.91;;;4.69
73734;BMP280;62039;50.000;9.064;2022-11-11T05:34:42;101948.22;;;4.69
73734;BMP280;62039;50.000;9.064;2022-11-11T05:37:08;101945.72;;;4.67
73734;BMP280;62039;50.000;9.064;2022-11-11T05:39:35;101940.47;;;4.69
73734;BMP280;62039;50.000;9.064;2022-11-11T05:42:02;101941.31;;;4.69
73734;BMP280;62039;50.000;9.064;2022-11-11T05:44:29;101949.00;;;4.71
73734;BMP280;62039;50.000;9.064;2022-11-11T05:46:55;101955.75;;;4.74
73734;BMP280;62039;50.000;9.064;2022-11-11T05:49:23;101951.41;;;4.74
73734;BMP280;62039;50.000;9.064;2022-11-11T05:51:50;101954.00;;;4.74
73734;BMP280;62039;50.000;9.064;2022-11-11T05:54:18;101955.66;;;4.75
73734;BMP280;62039;50.000;9.064;2022-11-11T05:56:44;101959.03;;;4.77
73734;BMP280;62039;50.000;9.064;2022-11-11T05:59:11;101964.13;;;4.79
73734;BMP280;62039;50.000;9.064;2022-11-11T06:01:37;101971.78;;;4.80
73734;BMP280;62039;50.000;9.064;2022-11-11T06:04:05;101980.31;;;4.82
73734;BMP280;62039;50.000;9.064;2022-11-11T06:06:34;101982.00;;;4.83
73734;BMP280;62039;50.000;9.064;2022-11-11T06:09:01;101981.16;;;4.83
73734;BMP280;62039;50.000;9.064;2022-11-11T06:11:28;101994.94;;;4.83
73734;BMP280;62039;50.000;9.064;2022-11-11T06:13:58;101987.19;;;4.83
73734;BMP280;62039;50.000;9.064;2022-11-11T06:16:25;101993.19;;;4.84
73734;BMP280;62039;50.000;9.064;2022-11-11T06:18:51;101994.94;;;4.83
73734;BMP280;62039;50.000;9.064;2022-11-11T06:21:18;101991.44;;;4.84
73734;BMP280;62039;50.000;9.064;2022-11-11T06:23:46;101998.19;;;4.87
73734;BMP280;62039;50.000;9.064;2022-11-11T06:26:12;101999.97;;;4.86
73734;BMP280;62039;50.000;9.064;2022-11-11T06:28:40;101986.06;;;4.87
73734;BMP280;62039;50.000;9.064;2022-11-11T06:31:06;101988.66;;;4.87
73734;BMP280;62039;50.000;9.064;2022-11-11T06:33:33;101991.19;;;4.89
73734;BMP280;62039;50.000;9.064;2022-11-11T06:36:00;101991.09;;;4.90
73734;BMP280;62039;50.000;9.064;2022-11-11T06:38:27;101987.75;;;4.88
73734;BMP280;62039;50.000;9.064;2022-11-11T06:40:55;101994.69;;;4.88
73734;BMP280;62039;50.000;9.064;2022-11-11T06:43:22;102008.47;;;4.88
73734;BMP280;62039;50.000;9.064;2022-11-11T06:45:49;102012.94;;;4.86
73734;BMP280;62039;50.000;9.064;2022-11-11T06:48:16;102014.75;;;4.84
73734;BMP280;62039;50.000;9.064;2022-11-11T06:50:43;102014.81;;;4.83
73734;BMP280;62039;50.000;9.064;2022-11-11T06:53:10;102018.25;;;4.83
73734;BMP280;62039;50.000;9.064;2022-11-11T06:55:37;102011.41;;;4.82
73734;BMP280;62039;50.000;9.064;2022-11-11T06:58:06;102027.84;;;4.81
73734;BMP280;62039;50.000;9.064;2022-11-11T07:00:32;102019.25;;;4.81
73734;BMP280;62039;50.000;9.064;2022-11-11T07:02:59;102014.97;;;4.80
73734;BMP280;62039;50.000;9.064;2022-11-11T07:05:25;102009.00;;;4.79
73734;BMP280;62039;50.000;9.064;2022-11-11T07:07:52;102008.16;;;4.79
73734;BMP280;62039;50.000;9.064;2022-11-11T07:10:19;102013.41;;;4.77
73734;BMP280;62039;50.000;9.064;2022-11-11T07:12:45;102011.66;;;4.78
73734;BMP280;62039;50.000;9.064;2022-11-11T07:15:13;102022.00;;;4.78
73734;BMP280;62039;50.000;9.064;2022-11-11T07:17:40;102023.69;;;4.79
73734;BMP280;62039;50.000;9.064;2022-11-11T07:20:07;102023.75;;;4.77
73734;BMP280;62039;50.000;9.064;2022-11-11T07:22:34;102034.06;;;4.79
73734;BMP280;62039;50.000;9.064;2022-11-11T07:25:04;102036.53;;;4.80
73734;BMP280;62039;50.000;9.064;2022-11-11T07:27:31;102038.97;;;4.83
73734;BMP280;62039;50.000;9.064;2022-11-11T07:29:58;102039.63;;;4.87
73734;BMP280;62039;50.000;9.064;2022-11-11T07:32:25;102039.41;;;4.91
73734;BMP280;62039;50.000;9.064;2022-11-11T07:34:52;102044.34;;;4.96
73734;BMP280;62039;50.000;9.064;2022-11-11T07:37:19;102045.94;;;4.98
73734;BMP280;62039;50.000;9.064;2022-11-11T07:39:45;102049.09;;;5.03
73734;BMP280;62039;50.000;9.064;2022-11-11T07:42:12;102048.00;;;5.07
73734;BMP280;62039;50.000;9.064;2022-11-11T07:44:56;102048.78;;;5.09
73734;BMP280;62039;50.000;9.064;2022-11-11T07:47:23;102052.13;;;5.12
73734;BMP280;62039;50.000;9.064;2022-11-11T07:49:51;102044.13;;;5.16
73734;BMP280;62039;50.000;9.064;2022-11-11T07:52:17;102048.13;;;5.22
73734;BMP280;62039;50.000;9.064;2022-11-11T07:54:44;102042.78;;;5.25
73734;BMP280;62039;50.000;9.064;2022-11-11T07:57:10;102043.38;;;5.30
73734;BMP280;62039;50.000;9.064;2022-11-11T07:59:37;102040.63;;;5.33
73734;BMP280;62039;50.000;9.064;2022-11-11T08:02:03;102043.78;;;5.38
73734;BMP280;62039;50.000;9.064;2022-11-11T08:04:30;102043.59;;;5.41
73734;BMP280;62039;50.000;9.064;2022-11-11T08:06:58;102057.16;;;5.46
73734;BMP280;62039;50.000;9.064;2022-11-11T08:09:24;102056.16;;;5.48
73734;BMP280;62039;50.000;9.064;2022-11-11T08:11:51;102068.88;;;5.53
73734;BMP280;62039;50.000;9.064;2022-11-11T08:14:17;102070.38;;;5.57
73734;BMP280;62039;50.000;9.064;2022-11-11T08:16:44;102081.31;;;5.62
73734;BMP280;62039;50.000;9.064;2022-11-11T08:19:10;102083.66;;;5.67
73734;BMP280;62039;50.000;9.064;2022-11-11T08:21:37;102086.91;;;5.70
73734;BMP280;62039;50.000;9.064;2022-11-11T08:24:05;102100.44;;;5.75
73734;BMP280;62039;50.000;9.064;2022-11-11T08:26:52;102104.44;;;5.81
73734;BMP280;62039;50.000;9.064;2022-11-11T08:29:18;102105.13;;;5.84
73734;BMP280;62039;50.000;9.064;2022-11-11T08:31:45;102113.47;;;5.89
73734;BMP280;62039;50.000;9.064;2022-11-11T08:34:12;102108.97;;;5.93
73734;BMP280;62039;50.000;9.064;2022-11-11T08:36:39;102108.69;;;5.98
73734;BMP280;62039;50.000;9.064;2022-11-11T08:39:07;102105.94;;;6.01
73734;BMP280;62039;50.000;9.064;2022-11-11T08:41:34;102097.88;;;6.05
73734;BMP280;62039;50.000;9.064;2022-11-11T08:44:00;102105.41;;;6.10
73734;BMP280;62039;50.000;9.064;2022-11-11T08:46:27;102111.28;;;6.13
73734;BMP280;62039;50.000;9.064;2022-11-11T08:48:53;102096.53;;;6.14
73734;BMP280;62039;50.000;9.064;2022-11-11T08:51:20;102097.25;;;6.16
73734;BMP280;62039;50.000;9.064;2022-11-11T08:53:47;102100.59;;;6.18
73734;BMP280;62039;50.000;9.064;2022-11-11T08:56:14;102096.06;;;6.21
73734;BMP280;62039;50.000;9.064;2022-11-11T08:58:41;102097.66;;;6.24
73734;BMP280;62039;50.000;9.064;2022-11-11T09:01:10;102106.19;;;6.26
73734;BMP280;62039;50.000;9.064;2022-11-11T09:03:36;102106.00;;;6.29
73734;BMP280;62039;50.000;9.064;2022-11-11T09:06:03;102101.50;;;6.33
73734;BMP280;62039;50.000;9.064;2022-11-11T09:08:30;102104.72;;;6.36
73734;BMP280;62039;50.000;9.064;2022-11-11T09:10:57;102103.66;;;6.40
73734;BMP280;62039;50.000;9.064;2022-11-11T09:13:25;102112.84;;;6.46
73734;BMP280;62039;50.000;9.064;2022-11-11T09:15:52;102104.97;;;6.47
73734;BMP280;62039;50.000;9.064;2022-11-11T09:18:19;102104.78;;;6.50
73734;BMP280;62039;50.000;9.064;2022-11-11T09:20:46;102099.31;;;6.55
73734;BMP280;62039;50.000;9.064;2022-11-11T09:23:12;102097.28;;;6.60
73734;BMP280;62039;50.000;9.064;2022-11-11T09:25:39;102096.25;;;6.62
73734;BMP280;62039;50.000;9.064;2022-11-11T09:28:05;102090.81;;;6.67
73734;BMP280;62039;50.000;9.064;2022-11-11T09:30:33;102087.91;;;6.72
73734;BMP280;62039;50.000;9.064;2022-11-11T09:33:00;102093.66;;;6.77
73734;BMP280;62039;50.000;9.064;2022-11-11T09:35:27;102096.09;;;6.80
73734;BMP280;62039;50.000;9.064;2022-11-11T09:37:54;102095.06;;;6.82
73734;BMP280;62039;50.000;9.064;2022-11-11T09:40:23;102094.88;;;6.85
73734;BMP280;62039;50.000;9.064;2022-11-11T09:42:58;102101.66;;;6.88
73734;BMP280;62039;50.000;9.064;2022-11-11T09:45:30;102110.19;;;6.90
73734;BMP280;62039;50.000;9.064;2022-11-11T09:48:07;102110.00;;;6.93
73734;BMP280;62039;50.000;9.064;2022-11-11T09:50:42;102115.00;;;6.96
73734;BMP280;62039;50.000;9.064;2022-11-11T09:53:16;102115.59;;;7.01
73734;BMP280;62039;50.000;9.064;2022-11-11T09:55:46;102110.94;;;7.06
73734;BMP280;62039;50.000;9.064;2022-11-11T09:58:19;102114.91;;;7.12
73734;BMP280;62039;50.000;9.064;2022-11-11T10:00:50;102109.41;;;7.16
73734;BMP280;62039;50.000;9.064;2022-11-11T10:03:22;102100.53;;;7.20
73734;BMP280;62039;50.000;9.064;2022-11-11T10:05:54;102095.09;;;7.23
73734;BMP280;62039;50.000;9.064;2022-11-11T10:08:24;102092.25;;;7.28
73734;BMP280;62039;50.000;9.064;2022-11-11T10:10:54;102088.59;;;7.30
73734;BMP280;62039;50.000;9.064;2022-11-11T10:13:27;102090.94;;;7.35
73734;BMP280;62039;50.000;9.064;2022-11-11T10:15:59;102084.59;;;7.39
73734;BMP280;62039;50.000;9.064;2022-11-11T10:18:49;102085.22;;;7.42
73734;BMP280;62039;50.000;9.064;2022-11-11T10:21:20;102088.56;;;7.44
73734;BMP280;62039;50.000;9.064;2022-11-11T10:23:49;102087.63;;;7.45
73734;BMP280;62039;50.000;9.064;2022-11-11T10:26:19;102085.78;;;7.48
73734;BMP280;62039;50.000;9.064;2022-11-11T10:28:49;102088.19;;;7.51
73734;BMP280;62039;50.000;9.064;2022-11-11T10:31:17;102079.28;;;7.55
73734;BMP280;62039;50.000;9.064;2022-11-11T10:33:49;102087.63;;;7.60
73734;BMP280;62039;50.000;9.064;2022-11-11T10:36:18;102076.31;;;7.61
73734;BMP280;62039;50.000;9.064;2022-11-11T10:38:49;102078.69;;;7.64
73734;BMP280;62039;50.000;9.064;2022-11-11T10:41:22;102073.28;;;7.67
73734;BMP280;62039;50.000;9.064;2022-11-11T10:43:49;102072.16;;;7.71
73734;BMP280;62039;50.000;9.064;2022-11-11T10:46:20;102070.09;;;7.76
73734;BMP280;62039;50.000;9.064;2022-11-11T10:48:52;102068.97;;;7.80
73734;BMP280;62039;50.000;9.064;2022-11-11T10:51:20;102079.91;;;7.85
73734;BMP280;62039;50.000;9.064;2022-11-11T10:53:56;102070.97;;;7.89
73734;BMP280;62039;50.000;9.064;2022-11-11T10:56:28;102068.91;;;7.94
73734;BMP280;62039;50.000;9.064;2022-11-11T10:59:07;102079.66;;;8.02
73734;BMP280;62039;50.000;9.064;2022-11-11T11:01:39;102072.38;;;8.07
73734;BMP280;62039;50.000;9.064;2022-11-11T11:04:16;102070.28;;;8.12
73734;BMP280;62039;50.000;9.064;2022-11-11T11:06:47;102072.69;;;8.15
73734;BMP280;62039;50.000;9.064;2022-11-11T11:09:18;102081.94;;;8.19
73734;BMP280;62039;50.000;9.064;2022-11-11T11:11:51;102082.56;;;8.23
73734;BMP280;62039;50.000;9.064;2022-11-11T11:14:22;102072.78;;;8.27
73734;BMP280;62039;50.000;9.064;2022-11-11T11:16:51;102068.44;;;8.27
73734;BMP280;62039;50.000;9.064;2022-11-11T11:19:21;102069.03;;;8.31
73734;BMP280;62039;50.000;9.064;2022-11-11T11:21:53;102071.44;;;8.34
73734;BMP280;62039;50.000;9.064;2022-11-11T11:24:23;102069.69;;;8.34
73734;BMP280;62039;50.000;9.064;2022-11-11T11:26:52;102066.00;;;8.37
73734;BMP280;62039;50.000;9.064;2022-11-11T11:29:27;102067.59;;;8.39
73734;BMP280;62039;50.000;9.064;2022-11-11T11:31:54;102068.34;;;8.41
73734;BMP280;62039;50.000;9.064;2022-11-11T11:34:41;102073.31;;;8.44
73734;BMP280;62039;50.000;9.064;2022-11-11T11:37:08;102072.28;;;8.47
73734;BMP280;62039;50.000;9.064;2022-11-11T11:39:36;102074.69;;;8.50
73734;BMP280;62039;50.000;9.064;2022-11-11T11:42:04;102072.78;;;8.52
73734;BMP280;62039;50.000;9.064;2022-11-11T11:44:32;102071.78;;;8.54
73734;BMP280;62039;50.000;9.064;2022-11-11T11:47:11;102069.25;;;8.53
73734;BMP280;62039;50.000;9.064;2022-11-11T11:49:56;102073.88;;;8.49
73734;BMP280;62039;50.000;9.064;2022-11-11T11:52:32;102072.09;;;8.50
73734;BMP280;62039;50.000;9.064;2022-11-11T11:55:14;102067.69;;;8.50
73734;BMP280;62039;50.000;9.064;2022-11-11T11:57:52;102068.44;;;8.52
73734;BMP280;62039;50.000;9.064;2022-11-11T12:00:22;102072.69;;;8.53
73734;BMP280;62039;50.000;9.064;2022-11-11T12:03:09;102062.19;;;8.55
73734;BMP280;62039;50.000;9.064;2022-11-11T12:05:42;102062.09;;;8.56
73734;BMP280;62039;50.000;9.064;2022-11-11T12:08:21;102064.69;;;8.56
73734;BMP280;62039;50.000;9.064;2022-11-11T12:10:55;102062.88;;;8.57
73734;BMP280;62039;50.000;9.064;2022-11-11T12:13:33;102057.69;;;8.57
73734;BMP280;62039;50.000;9.064;2022-11-11T12:16:07;102058.50;;;8.57
73734;BMP280;62039;50.000;9.064;2022-11-11T12:18:55;102057.50;;;8.60
73734;BMP280;62039;50.000;9.064;2022-11-11T12:21:32;102054.72;;;8.63
73734;BMP280;62039;50.000;9.064;2022-11-11T12:24:07;102045.72;;;8.67
73734;BMP280;62039;50.000;9.064;2022-11-11T12:26:43;102045.53;;;8.70
73734;BMP280;62039;50.000;9.064;2022-11-11T12:29:21;102058.56;;;8.70
73734;BMP280;62039;50.000;9.064;2022-11-11T12:31:59;102059.38;;;8.71
73734;BMP280;62039;50.000;9.064;2022-11-11T12:35:05;102055.72;;;8.73
73734;BMP280;62039;50.000;9.064;2022-11-11T12:37:41;102058.13;;;8.76
73734;BMP280;62039;50.000;9.064;2022-11-11T12:40:20;102052.59;;;8.81
73734;BMP280;62039;50.000;9.064;2022-11-11T12:42:59;102048.22;;;8.81
73734;BMP280;62039;50.000;9.064;2022-11-11T12:45:35;102043.84;;;8.82
73734;BMP280;62039;50.000;9.064;2022-11-11T12:48:12;102049.06;;;8.82
73734;BMP280;62039;50.000;9.064;2022-11-11T12:50:46;102041.13;;;8.83
73734;BMP280;62039;50.000;9.064;2022-11-11T12:53:25;102039.97;;;8.87
73734;BMP280;62039;50.000;9.064;2022-11-11T12:56:04;102036.19;;;8.91
73734;BMP280;62039;50.000;9.064;2022-11-11T12:58:38;102028.16;;;8.94
73734;BMP280;62039;50.000;9.064;2022-11-11T13:01:16;102029.59;;;8.98
73734;BMP280;62039;50.000;9.064;2022-11-11T13:03:51;102026.78;;;9.01
73734;BMP280;62039;50.000;9.064;2022-11-11T13:06:37;102032.75;;;9.03
73734;BMP280;62039;50.000;9.064;2022-11-11T13:09:33;102015.44;;;9.02
73734;BMP280;62039;50.000;9.064;2022-11-11T13:12:06;102022.16;;;9.05
73734;BMP280;62039;50.000;9.064;2022-11-11T13:14:53;102019.38;;;9.08
73734;BMP280;62039;50.000;9.064;2022-11-11T13:17:21;102025.19;;;9.12
73734;BMP280;62039;50.000;9.064;2022-11-11T13:19:52;102027.56;;;9.15
73734;BMP280;62039;50.000;9.064;2022-11-11T13:22:24;102018.94;;;9.14
73734;BMP280;62039;50.000;9.064;2022-11-11T13:24:53;102015.47;;;9.14
73734;BMP280;62039;50.000;9.064;2022-11-11T13:27:30;102015.59;;;9.12
73734;BMP280;62039;50.000;9.064;2022-11-11T13:30:23;102014.25;;;9.07
73734;BMP280;62039;50.000;9.064;2022-11-11T13:32:58;102013.75;;;9.01
73734;BMP280;62039;50.000;9.064;2022-11-11T13:35:30;102015.03;;;8.96
73734;BMP280;62039;50.000;9.064;2022-11-11T13:37:57;102011.28;;;8.87
73734;BMP280;62039;50.000;9.064;2022-11-11T13:40:36;102010.66;;;8.84
73734;BMP280;62039;50.000;9.064;2022-11-11T13:43:04;102019.66;;;8.80
73734;BMP280;62039;50.000;9.064;2022-11-11T13:45:34;102011.09;;;8.78
73734;BMP280;62039;50.000;9.064;2022-11-11T13:48:02;102011.22;;;8.76
73734;BMP280;62039;50.000;9.064;2022-11-11T13:50:31;102010.38;;;8.76
73734;BMP280;62039;50.000;9.064;2022-11-11T13:53:00;102017.38;;;8.75
73734;BMP280;62039;50.000;9.064;2022-11-11T13:55:31;102012.88;;;8.77
73734;BMP280;62039;50.000;9.064;2022-11-11T13:58:00;102014.53;;;8.78
73734;BMP280;62039;50.000;9.064;2022-11-11T14:00:31;102012.06;;;8.77
73734;BMP280;62039;50.000;9.064;2022-11-11T14:03:31;102010.50;;;8.74
73734;BMP280;62039;50.000;9.064;2022-11-11T14:09:10;102015.47;;;8.77
73734;BMP280;62039;50.000;9.064;2022-11-11T14:11:36;102012.66;;;8.80
73734;BMP280;62039;50.000;9.064;2022-11-11T14:17:14;102009.84;;;8.83
73734;BMP280;62039;50.000;9.064;2022-11-11T14:19:42;102012.47;;;8.83
73734;BMP280;62039;50.000;9.064;2022-11-11T14:22:30;102003.69;;;8.84
73734;BMP280;62039;50.000;9.064;2022-11-11T14:25:15;102014.84;;;8.86
73734;BMP280;62039;50.000;9.064;2022-11-11T14:27:45;102014.84;;;8.86
73734;BMP280;62039;50.000;9.064;2022-11-11T14:30:26;102020.03;;;8.86